sensor_id;sensor_type;location;lat;lon;timestamp;temperature;humidity
11846;DHT22;5982;37.494;-8.758;2023-06-14T00:02:10;18.60;99.90
11846;DHT22;5982;37.494;-8.758;2023-06-14T00:04:39;18.50;99.90
11846;DHT22;5982;37.494;-8.758;2023-06-14T00:07:09;18.50;99.90
11846;DHT22;5982;37.494;-8.758;2023-06-14T00:09:40;18.50;99.90
11846;DHT22;5982;37.494;-8.758;2023-06-14T00:12:08;18.50;99.90
11846;DHT22;5982;37.494;-8.758;2023-06-14T00:14:37;18.50;99.90
11846;DHT22;5982;37.494;-8.758;2023-06-14T00:17:05;18.50;99.90
11846;DHT22;5982;37.494;-8.758;2023-06-14T00:19:34;18.50;99.90
11846;DHT22;5982;37.494;-8.758;2023-06-14T00:22:02;18.50;99.90
11846;DHT22;5982;37.494;-8.758;2023-06-14T00:24:33;18.50;99.90
11846;DHT22;5982;37.494;-8.758;2023-06-14T00:27:01;18.50;99.90
11846;DHT22;5982;37.494;-8.758;2023-06-14T00:29:29;18.40;99.90
11846;DHT22;5982;37.494;-8.758;2023-06-14T00:31:57;18.40;99.90
11846;DHT22;5982;37.494;-8.758;2023-06-14T00:34:25;18.40;99.90
11846;DHT22;5982;37.494;-8.758;2023-06-14T00:36:53;18.40;99.90
11846;DHT22;5982;37.494;-8.758;2023-06-14T00:39:22;18.40;99.90
11846;DHT22;5982;37.494;-8.758;2023-06-14T00:41:51;18.30;99.90
11846;DHT22;5982;37.494;-8.758;2023-06-14T00:44:19;18.30;99.90
11846;DHT22;5982;37.494;-8.758;2023-06-14T00:46:49;18.30;99.90
11846;DHT22;5982;37.494;-8.758;2023-06-14T00:49:17;18.20;99.90
11846;DHT22;5982;37.494;-8.758;2023-06-14T00:51:45;18.20;99.90
11846;DHT22;5982;37.494;-8.758;2023-06-14T00:54:13;18.20;99.90
11846;DHT22;5982;37.494;-8.758;2023-06-14T00:56:41;18.30;99.90
11846;DHT22;5982;37.494;-8.758;2023-06-14T00:59:12;18.20;99.90
11846;DHT22;5982;37.494;-8.758;2023-06-14T01:01:41;18.30;99.90
11846;DHT22;5982;37.494;-8.758;2023-06-14T01:04:09;18.30;99.90
11846;DHT22;5982;37.494;-8.758;2023-06-14T01:06:40;18.30;99.90
11846;DHT22;5982;37.494;-8.758;2023-06-14T01:09:14;18.20;99.90
11846;DHT22;5982;37.494;-8.758;2023-06-14T01:11:47;18.20;99.90
11846;DHT22;5982;37.494;-8.758;2023-06-14T01:14:24;18.10;99.90
11846;DHT22;5982;37.494;-8.758;2023-06-14T01:16:53;18.00;99.90
11846;DHT22;5982;37.494;-8.758;2023-06-14T01:19:22;18.00;99.90
11846;DHT22;5982;37.494;-8.758;2023-06-14T01:21:54;18.10;99.90
11846;DHT22;5982;37.494;-8.758;2023-06-14T01:24:24;18.00;99.90
11846;DHT22;5982;37.494;-8.758;2023-06-14T01:26:57;18.00;99.90
11846;DHT22;5982;37.494;-8.758;2023-06-14T01:29:26;18.00;99.90
11846;DHT22;5982;37.494;-8.758;2023-06-14T01:31:59;18.00;99.90
11846;DHT22;5982;37.494;-8.758;2023-06-14T01:34:28;17.80;99.90
11846;DHT22;5982;37.494;-8.758;2023-06-14T01:36:57;17.70;99.90
11846;DHT22;5982;37.494;-8.758;2023-06-14T01:39:26;17.70;99.90
11846;DHT22;5982;37.494;-8.758;2023-06-14T01:41:56;17.80;99.90
11846;DHT22;5982;37.494;-8.758;2023-06-14T01:44:25;17.80;99.90
11846;DHT22;5982;37.494;-8.758;2023-06-14T01:46:53;17.90;99.90
11846;DHT22;5982;37.494;-8.758;2023-06-14T01:49:22;17.90;99.90
11846;DHT22;5982;37.494;-8.758;2023-06-14T01:51:50;17.80;99.90
11846;DHT22;5982;37.494;-8.758;2023-06-14T01:54:18;17.80;99.90
11846;DHT22;5982;37.494;-8.758;2023-06-14T01:56:49;17.80;99.90
11846;DHT22;5982;37.494;-8.758;2023-06-14T01:59:17;17.80;99.90
11846;DHT22;5982;37.494;-8.758;2023-06-14T02:01:46;17.50;99.90
11846;DHT22;5982;37.494;-8.758;2023-06-14T02:04:14;17.40;99.90
11846;DHT22;5982;37.494;-8.758;2023-06-14T02:06:43;17.30;99.90
11846;DHT22;5982;37.494;-8.758;2023-06-14T02:09:11;17.30;99.90
11846;DHT22;5982;37.494;-8.758;2023-06-14T02:11:40;17.30;99.90
11846;DHT22;5982;37.494;-8.758;2023-06-14T02:14:10;17.20;99.90
11846;DHT22;5982;37.494;-8.758;2023-06-14T02:16:38;17.20;99.90
11846;DHT22;5982;37.494;-8.758;2023-06-14T02:19:07;17.30;99.90
11846;DHT22;5982;37.494;-8.758;2023-06-14T02:21:35;17.40;99.90
11846;DHT22;5982;37.494;-8.758;2023-06-14T02:24:04;17.40;99.90
11846;DHT22;5982;37.494;-8.758;2023-06-14T02:26:32;17.40;99.90
11846;DHT22;5982;37.494;-8.758;2023-06-14T02:29:00;17.50;99.90
11846;DHT22;5982;37.494;-8.758;2023-06-14T02:31:30;17.50;99.90
11846;DHT22;5982;37.494;-8.758;2023-06-14T02:33:58;17.50;99.90
11846;DHT22;5982;37.494;-8.758;2023-06-14T02:36:26;17.50;99.90
11846;DHT22;5982;37.494;-8.758;2023-06-14T02:38:55;17.50;99.90
11846;DHT22;5982;37.494;-8.758;2023-06-14T02:41:23;17.50;99.90
11846;DHT22;5982;37.494;-8.758;2023-06-14T02:43:51;17.50;99.90
11846;DHT22;5982;37.494;-8.758;2023-06-14T02:46:19;17.60;99.90
11846;DHT22;5982;37.494;-8.758;2023-06-14T02:48:49;17.50;99.90
11846;DHT22;5982;37.494;-8.758;2023-06-14T02:51:17;17.50;99.90
11846;DHT22;5982;37.494;-8.758;2023-06-14T02:53:45;17.50;99.90
11846;DHT22;5982;37.494;-8.758;2023-06-14T02:56:12;17.50;99.90
11846;DHT22;5982;37.494;-8.758;2023-06-14T02:58:43;17.50;99.90
11846;DHT22;5982;37.494;-8.758;2023-06-14T03:01:11;17.50;99.90
11846;DHT22;5982;37.494;-8.758;2023-06-14T03:03:39;17.50;99.90
11846;DHT22;5982;37.494;-8.758;2023-06-14T03:09:31;17.50;99.90
11846;DHT22;5982;37.494;-8.758;2023-06-14T03:12:00;17.50;99.90
11846;DHT22;5982;37.494;-8.758;2023-06-14T03:14:28;17.40;99.90
11846;DHT22;5982;37.494;-8.758;2023-06-14T03:16:57;17.30;99.90
11846;DHT22;5982;37.494;-8.758;2023-06-14T03:19:26;17.20;99.90
11846;DHT22;5982;37.494;-8.758;2023-06-14T03:21:54;17.10;99.90
11846;DHT22;5982;37.494;-8.758;2023-06-14T03:24:23;17.00;99.90
11846;DHT22;5982;37.494;-8.758;2023-06-14T03:26:55;17.10;99.90
11846;DHT22;5982;37.494;-8.758;2023-06-14T03:29:23;17.00;99.90
11846;DHT22;5982;37.494;-8.758;2023-06-14T03:31:57;17.00;99.90
11846;DHT22;5982;37.494;-8.758;2023-06-14T03:34:26;17.00;99.90
11846;DHT22;5982;37.494;-8.758;2023-06-14T03:36:54;16.90;99.90
11846;DHT22;5982;37.494;-8.758;2023-06-14T03:39:23;16.90;99.90
11846;DHT22;5982;37.494;-8.758;2023-06-14T03:41:51;16.90;99.90
11846;DHT22;5982;37.494;-8.758;2023-06-14T03:44:21;16.90;99.90
11846;DHT22;5982;37.494;-8.758;2023-06-14T03:46:50;16.80;99.90
11846;DHT22;5982;37.494;-8.758;2023-06-14T03:49:19;16.80;99.90
11846;DHT22;5982;37.494;-8.758;2023-06-14T03:51:48;16.70;99.90
11846;DHT22;5982;37.494;-8.758;2023-06-14T03:54:17;16.90;99.90
11846;DHT22;5982;37.494;-8.758;2023-06-14T03:56:46;17.00;99.90
11846;DHT22;5982;37.494;-8.758;2023-06-14T03:59:14;17.00;99.90
11846;DHT22;5982;37.494;-8.758;2023-06-14T04:01:43;16.80;99.90
11846;DHT22;5982;37.494;-8.758;2023-06-14T04:04:13;16.50;99.90
11846;DHT22;5982;37.494;-8.758;2023-06-14T04:06:42;16.30;99.90
11846;DHT22;5982;37.494;-8.758;2023-06-14T04:09:10;16.20;99.90
11846;DHT22;5982;37.494;-8.758;2023-06-14T04:11:37;16.10;99.90
11846;DHT22;5982;37.494;-8.758;2023-06-14T04:14:05;16.10;99.90
11846;DHT22;5982;37.494;-8.758;2023-06-14T04:16:33;16.00;99.90
11846;DHT22;5982;37.494;-8.758;2023-06-14T04:19:03;16.00;99.90
11846;DHT22;5982;37.494;-8.758;2023-06-14T04:21:31;16.20;99.90
11846;DHT22;5982;37.494;-8.758;2023-06-14T04:24:00;16.20;99.90
11846;DHT22;5982;37.494;-8.758;2023-06-14T04:26:29;16.20;99.90
11846;DHT22;5982;37.494;-8.758;2023-06-14T04:29:00;16.10;99.90
11846;DHT22;5982;37.494;-8.758;2023-06-14T04:31:28;16.30;99.90
11846;DHT22;5982;37.494;-8.758;2023-06-14T04:33:59;16.40;99.90
11846;DHT22;5982;37.494;-8.758;2023-06-14T04:36:33;16.30;99.90
11846;DHT22;5982;37.494;-8.758;2023-06-14T04:39:03;16.30;99.90
11846;DHT22;5982;37.494;-8.758;2023-06-14T04:41:32;16.40;99.90
11846;DHT22;5982;37.494;-8.758;2023-06-14T04:44:01;16.50;99.90
11846;DHT22;5982;37.494;-8.758;2023-06-14T04:46:30;16.50;99.90
11846;DHT22;5982;37.494;-8.758;2023-06-14T04:48:58;16.40;99.90
11846;DHT22;5982;37.494;-8.758;2023-06-14T04:51:28;16.30;99.90
11846;DHT22;5982;37.494;-8.758;2023-06-14T04:53:58;16.20;99.90
11846;DHT22;5982;37.494;-8.758;2023-06-14T04:56:27;16.10;99.90
11846;DHT22;5982;37.494;-8.758;2023-06-14T04:58:56;16.00;99.90
11846;DHT22;5982;37.494;-8.758;2023-06-14T05:01:24;16.00;99.90
11846;DHT22;5982;37.494;-8.758;2023-06-14T05:03:52;15.90;99.90
11846;DHT22;5982;37.494;-8.758;2023-06-14T05:06:20;15.90;99.90
11846;DHT22;5982;37.494;-8.758;2023-06-14T05:08:48;15.90;99.90
11846;DHT22;5982;37.494;-8.758;2023-06-14T05:11:17;15.90;99.90
11846;DHT22;5982;37.494;-8.758;2023-06-14T05:13:45;16.00;99.90
11846;DHT22;5982;37.494;-8.758;2023-06-14T05:16:14;16.00;99.90
11846;DHT22;5982;37.494;-8.758;2023-06-14T05:18:45;16.00;99.90
11846;DHT22;5982;37.494;-8.758;2023-06-14T05:21:13;16.10;99.90
11846;DHT22;5982;37.494;-8.758;2023-06-14T05:23:44;16.20;99.90
11846;DHT22;5982;37.494;-8.758;2023-06-14T05:26:13;16.20;99.90
11846;DHT22;5982;37.494;-8.758;2023-06-14T05:28:42;16.40;99.90
11846;DHT22;5982;37.494;-8.758;2023-06-14T05:31:11;16.40;99.90
11846;DHT22;5982;37.494;-8.758;2023-06-14T05:33:39;16.40;99.90
11846;DHT22;5982;37.494;-8.758;2023-06-14T05:36:07;16.30;99.90
11846;DHT22;5982;37.494;-8.758;2023-06-14T05:38:36;16.30;99.90
11846;DHT22;5982;37.494;-8.758;2023-06-14T05:41:04;16.30;99.90
11846;DHT22;5982;37.494;-8.758;2023-06-14T05:43:32;16.50;99.90
11846;DHT22;5982;37.494;-8.758;2023-06-14T05:46:02;16.80;99.90
11846;DHT22;5982;37.494;-8.758;2023-06-14T05:48:30;17.10;99.90
11846;DHT22;5982;37.494;-8.758;2023-06-14T05:50:58;17.20;99.90
11846;DHT22;5982;37.494;-8.758;2023-06-14T05:53:26;17.30;99.90
11846;DHT22;5982;37.494;-8.758;2023-06-14T05:55:55;17.50;99.90
11846;DHT22;5982;37.494;-8.758;2023-06-14T05:58:22;17.60;99.90
11846;DHT22;5982;37.494;-8.758;2023-06-14T06:00:51;17.50;99.90
11846;DHT22;5982;37.494;-8.758;2023-06-14T06:03:20;17.40;99.90
11846;DHT22;5982;37.494;-8.758;2023-06-14T06:05:49;17.30;99.90
11846;DHT22;5982;37.494;-8.758;2023-06-14T06:08:17;17.30;99.90
11846;DHT22;5982;37.494;-8.758;2023-06-14T06:10:45;17.30;99.90
11846;DHT22;5982;37.494;-8.758;2023-06-14T06:13:13;17.80;99.90
11846;DHT22;5982;37.494;-8.758;2023-06-14T06:15:42;19.20;99.90
11846;DHT22;5982;37.494;-8.758;2023-06-14T06:18:11;21.30;99.90
11846;DHT22;5982;37.494;-8.758;2023-06-14T06:20:40;23.40;99.90
11846;DHT22;5982;37.494;-8.758;2023-06-14T06:23:09;25.10;99.90
11846;DHT22;5982;37.494;-8.758;2023-06-14T06:25:38;26.30;99.90
11846;DHT22;5982;37.494;-8.758;2023-06-14T06:28:06;27.40;99.90
11846;DHT22;5982;37.494;-8.758;2023-06-14T06:30:34;26.80;99.90
11846;DHT22;5982;37.494;-8.758;2023-06-14T06:33:02;25.30;99.90
11846;DHT22;5982;37.494;-8.758;2023-06-14T06:35:31;23.90;99.90
11846;DHT22;5982;37.494;-8.758;2023-06-14T06:38:01;22.90;99.90
11846;DHT22;5982;37.494;-8.758;2023-06-14T06:40:29;22.20;99.90
11846;DHT22;5982;37.494;-8.758;2023-06-14T06:42:57;21.60;99.90
11846;DHT22;5982;37.494;-8.758;2023-06-14T06:45:24;21.30;99.90
11846;DHT22;5982;37.494;-8.758;2023-06-14T06:47:52;21.00;99.90
11846;DHT22;5982;37.494;-8.758;2023-06-14T06:50:21;21.30;99.90
11846;DHT22;5982;37.494;-8.758;2023-06-14T06:52:50;21.70;99.90
11846;DHT22;5982;37.494;-8.758;2023-06-14T06:55:20;22.00;99.90
11846;DHT22;5982;37.494;-8.758;2023-06-14T06:57:48;22.60;99.90
11846;DHT22;5982;37.494;-8.758;2023-06-14T07:00:19;23.00;99.90
11846;DHT22;5982;37.494;-8.758;2023-06-14T07:02:47;22.80;99.90
11846;DHT22;5982;37.494;-8.758;2023-06-14T07:05:15;22.60;99.90
11846;DHT22;5982;37.494;-8.758;2023-06-14T07:07:43;22.20;99.90
11846;DHT22;5982;37.494;-8.758;2023-06-14T07:10:12;23.20;99.90
11846;DHT22;5982;37.494;-8.758;2023-06-14T07:12:41;23.70;99.90
11846;DHT22;5982;37.494;-8.758;2023-06-14T07:15:09;24.00;99.90
11846;DHT22;5982;37.494;-8.758;2023-06-14T07:17:38;23.90;99.90
11846;DHT22;5982;37.494;-8.758;2023-06-14T07:20:07;23.90;99.90
11846;DHT22;5982;37.494;-8.758;2023-06-14T07:22:40;23.80;99.90
11846;DHT22;5982;37.494;-8.758;2023-06-14T07:25:09;23.60;99.90
11846;DHT22;5982;37.494;-8.758;2023-06-14T07:27:39;23.50;99.90
11846;DHT22;5982;37.494;-8.758;2023-06-14T07:30:09;23.40;99.90
11846;DHT22;5982;37.494;-8.758;2023-06-14T07:32:38;23.40;99.90
11846;DHT22;5982;37.494;-8.758;2023-06-14T07:35:06;23.30;99.90
11846;DHT22;5982;37.494;-8.758;2023-06-14T07:37:35;23.20;99.90
11846;DHT22;5982;37.494;-8.758;2023-06-14T07:40:04;22.90;99.90
11846;DHT22;5982;37.494;-8.758;2023-06-14T07:42:34;22.70;99.90
11846;DHT22;5982;37.494;-8.758;2023-06-14T07:45:05;22.70;99.90
11846;DHT22;5982;37.494;-8.758;2023-06-14T07:47:34;22.50;99.90
11846;DHT22;5982;37.494;-8.758;2023-06-14T07:50:02;22.20;99.90
11846;DHT22;5982;37.494;-8.758;2023-06-14T07:52:31;22.00;99.90
11846;DHT22;5982;37.494;-8.758;2023-06-14T07:54:59;21.90;99.90
11846;DHT22;5982;37.494;-8.758;2023-06-14T07:57:28;21.70;99.90
11846;DHT22;5982;37.494;-8.758;2023-06-14T07:59:56;21.70;99.90
11846;DHT22;5982;37.494;-8.758;2023-06-14T08:02:26;21.70;99.90
11846;DHT22;5982;37.494;-8.758;2023-06-14T08:04:55;22.00;99.90
11846;DHT22;5982;37.494;-8.758;2023-06-14T08:07:22;22.20;99.90
11846;DHT22;5982;37.494;-8.758;2023-06-14T08:09:50;22.10;99.90
11846;DHT22;5982;37.494;-8.758;2023-06-14T08:12:18;22.20;99.90
11846;DHT22;5982;37.494;-8.758;2023-06-14T08:14:46;22.00;99.90
11846;DHT22;5982;37.494;-8.758;2023-06-14T08:17:15;22.00;99.90
11846;DHT22;5982;37.494;-8.758;2023-06-14T08:19:45;22.00;99.90
11846;DHT22;5982;37.494;-8.758;2023-06-14T08:22:13;21.90;99.90
11846;DHT22;5982;37.494;-8.758;2023-06-14T08:24:41;21.80;99.90
11846;DHT22;5982;37.494;-8.758;2023-06-14T08:27:10;21.80;99.90
11846;DHT22;5982;37.494;-8.758;2023-06-14T08:29:40;21.90;99.90
11846;DHT22;5982;37.494;-8.758;2023-06-14T08:32:09;21.90;99.90
11846;DHT22;5982;37.494;-8.758;2023-06-14T08:34:37;21.80;99.90
11846;DHT22;5982;37.494;-8.758;2023-06-14T08:37:07;21.70;99.90
11846;DHT22;5982;37.494;-8.758;2023-06-14T08:39:34;21.90;99.90
11846;DHT22;5982;37.494;-8.758;2023-06-14T08:42:02;21.90;99.90
11846;DHT22;5982;37.494;-8.758;2023-06-14T08:44:31;22.10;99.90
11846;DHT22;5982;37.494;-8.758;2023-06-14T08:47:00;22.00;99.90
11846;DHT22;5982;37.494;-8.758;2023-06-14T08:49:29;22.00;99.90
11846;DHT22;5982;37.494;-8.758;2023-06-14T08:51:57;22.10;99.90
11846;DHT22;5982;37.494;-8.758;2023-06-14T08:54:27;22.20;99.90
11846;DHT22;5982;37.494;-8.758;2023-06-14T08:56:58;22.30;99.90
11846;DHT22;5982;37.494;-8.758;2023-06-14T08:59:26;22.30;99.90
11846;DHT22;5982;37.494;-8.758;2023-06-14T09:01:54;22.50;99.90
11846;DHT22;5982;37.494;-8.758;2023-06-14T09:04:22;22.60;99.90
11846;DHT22;5982;37.494;-8.758;2023-06-14T09:06:56;22.60;99.90
11846;DHT22;5982;37.494;-8.758;2023-06-14T09:09:24;22.70;99.90
11846;DHT22;5982;37.494;-8.758;2023-06-14T09:11:53;22.90;99.90
11846;DHT22;5982;37.494;-8.758;2023-06-14T09:14:23;22.90;99.90
11846;DHT22;5982;37.494;-8.758;2023-06-14T09:16:52;23.00;99.90
11846;DHT22;5982;37.494;-8.758;2023-06-14T09:19:21;23.20;99.90
11846;DHT22;5982;37.494;-8.758;2023-06-14T09:21:49;23.50;99.90
11846;DHT22;5982;37.494;-8.758;2023-06-14T09:24:18;23.50;99.90
11846;DHT22;5982;37.494;-8.758;2023-06-14T09:26:46;23.50;99.90
11846;DHT22;5982;37.494;-8.758;2023-06-14T09:29:17;23.30;99.90
11846;DHT22;5982;37.494;-8.758;2023-06-14T09:31:46;23.50;99.90
11846;DHT22;5982;37.494;-8.758;2023-06-14T09:34:15;23.80;99.90
11846;DHT22;5982;37.494;-8.758;2023-06-14T09:36:45;24.20;99.90
11846;DHT22;5982;37.494;-8.758;2023-06-14T09:39:16;24.50;99.90
11846;DHT22;5982;37.494;-8.758;2023-06-14T09:41:45;24.70;99.90
11846;DHT22;5982;37.494;-8.758;2023-06-14T09:44:13;24.90;99.90
11846;DHT22;5982;37.494;-8.758;2023-06-14T09:46:45;24.90;99.90
11846;DHT22;5982;37.494;-8.758;2023-06-14T09:49:13;25.10;99.90
11846;DHT22;5982;37.494;-8.758;2023-06-14T09:51:43;25.20;99.90
11846;DHT22;5982;37.494;-8.758;2023-06-14T09:54:14;25.20;99.90
11846;DHT22;5982;37.494;-8.758;2023-06-14T09:56:44;25.40;99.90
11846;DHT22;5982;37.494;-8.758;2023-06-14T09:59:13;25.40;99.90
11846;DHT22;5982;37.494;-8.758;2023-06-14T10:01:42;25.30;99.90
11846;DHT22;5982;37.494;-8.758;2023-06-14T10:04:12;25.30;99.90
11846;DHT22;5982;37.494;-8.758;2023-06-14T10:06:44;25.40;99.90
11846;DHT22;5982;37.494;-8.758;2023-06-14T10:09:12;25.40;99.90
11846;DHT22;5982;37.494;-8.758;2023-06-14T10:11:42;25.20;99.90
11846;DHT22;5982;37.494;-8.758;2023-06-14T10:14:12;25.20;99.90
11846;DHT22;5982;37.494;-8.758;2023-06-14T10:16:42;25.30;99.90
11846;DHT22;5982;37.494;-8.758;2023-06-14T10:19:17;25.30;99.90
11846;DHT22;5982;37.494;-8.758;2023-06-14T10:21:51;25.30;99.90
11846;DHT22;5982;37.494;-8.758;2023-06-14T10:24:27;25.30;99.90
11846;DHT22;5982;37.494;-8.758;2023-06-14T10:26:59;25.20;99.90
11846;DHT22;5982;37.494;-8.758;2023-06-14T10:29:28;25.20;99.90
11846;DHT22;5982;37.494;-8.758;2023-06-14T10:31:59;25.20;99.90
11846;DHT22;5982;37.494;-8.758;2023-06-14T10:34:29;25.20;99.90
11846;DHT22;5982;37.494;-8.758;2023-06-14T10:37:04;25.10;99.90
11846;DHT22;5982;37.494;-8.758;2023-06-14T10:39:37;25.20;99.90
11846;DHT22;5982;37.494;-8.758;2023-06-14T10:42:06;25.20;99.90
11846;DHT22;5982;37.494;-8.758;2023-06-14T10:44:39;25.30;99.90
11846;DHT22;5982;37.494;-8.758;2023-06-14T10:47:11;25.30;99.90
11846;DHT22;5982;37.494;-8.758;2023-06-14T10:49:50;25.30;99.90
11846;DHT22;5982;37.494;-8.758;2023-06-14T10:52:21;25.40;99.90
11846;DHT22;5982;37.494;-8.758;2023-06-14T10:57:42;25.30;99.90
11846;DHT22;5982;37.494;-8.758;2023-06-14T11:00:13;25.40;99.90
11846;DHT22;5982;37.494;-8.758;2023-06-14T11:03:09;25.40;99.90
11846;DHT22;5982;37.494;-8.758;2023-06-14T11:06:02;25.40;99.90
11846;DHT22;5982;37.494;-8.758;2023-06-14T11:11:39;25.50;99.90
11846;DHT22;5982;37.494;-8.758;2023-06-14T11:14:09;25.40;99.90
11846;DHT22;5982;37.494;-8.758;2023-06-14T11:16:38;25.40;99.90
11846;DHT22;5982;37.494;-8.758;2023-06-14T11:19:08;25.40;99.90
11846;DHT22;5982;37.494;-8.758;2023-06-14T11:21:40;25.40;99.90
11846;DHT22;5982;37.494;-8.758;2023-06-14T11:24:10;25.50;99.90
11846;DHT22;5982;37.494;-8.758;2023-06-14T11:26:39;25.50;99.90
11846;DHT22;5982;37.494;-8.758;2023-06-14T11:29:07;25.50;99.90
11846;DHT22;5982;37.494;-8.758;2023-06-14T11:31:36;25.40;99.90
11846;DHT22;5982;37.494;-8.758;2023-06-14T11:34:05;25.40;99.90
11846;DHT22;5982;37.494;-8.758;2023-06-14T11:36:35;25.30;99.90
11846;DHT22;5982;37.494;-8.758;2023-06-14T11:39:04;25.20;99.90
11846;DHT22;5982;37.494;-8.758;2023-06-14T11:41:34;25.30;99.90
11846;DHT22;5982;37.494;-8.758;2023-06-14T11:44:05;25.40;99.90
11846;DHT22;5982;37.494;-8.758;2023-06-14T11:46:33;25.40;99.90
11846;DHT22;5982;37.494;-8.758;2023-06-14T11:49:02;25.40;99.90
11846;DHT22;5982;37.494;-8.758;2023-06-14T11:51:30;25.50;99.90
11846;DHT22;5982;37.494;-8.758;2023-06-14T11:54:00;25.40;99.90
11846;DHT22;5982;37.494;-8.758;2023-06-14T11:56:30;25.50;99.90
11846;DHT22;5982;37.494;-8.758;2023-06-14T11:58:59;25.40;99.90
11846;DHT22;5982;37.494;-8.758;2023-06-14T12:01:29;25.50;99.90
11846;DHT22;5982;37.494;-8.758;2023-06-14T12:03:59;25.40;99.90
11846;DHT22;5982;37.494;-8.758;2023-06-14T12:06:29;25.30;99.90
11846;DHT22;5982;37.494;-8.758;2023-06-14T12:09:06;25.30;99.90
11846;DHT22;5982;37.494;-8.758;2023-06-14T12:11:38;25.20;99.90
11846;DHT22;5982;37.494;-8.758;2023-06-14T12:14:08;25.30;99.90
11846;DHT22;5982;37.494;-8.758;2023-06-14T12:16:38;25.30;99.90
11846;DHT22;5982;37.494;-8.758;2023-06-14T12:19:13;25.40;99.90
11846;DHT22;5982;37.494;-8.758;2023-06-14T12:21:42;25.50;99.90
11846;DHT22;5982;37.494;-8.758;2023-06-14T12:24:16;25.50;99.90
11846;DHT22;5982;37.494;-8.758;2023-06-14T12:26:45;25.60;99.90
11846;DHT22;5982;37.494;-8.758;2023-06-14T12:29:14;25.60;99.90
11846;DHT22;5982;37.494;-8.758;2023-06-14T12:31:42;25.70;99.90
11846;DHT22;5982;37.494;-8.758;2023-06-14T12:34:10;25.60;99.90
11846;DHT22;5982;37.494;-8.758;2023-06-14T12:36:39;25.60;99.90
11846;DHT22;5982;37.494;-8.758;2023-06-14T12:39:11;25.70;99.90
11846;DHT22;5982;37.494;-8.758;2023-06-14T12:41:41;25.70;99.90
11846;DHT22;5982;37.494;-8.758;2023-06-14T12:44:09;25.70;99.90
11846;DHT22;5982;37.494;-8.758;2023-06-14T12:46:40;25.80;99.90
11846;DHT22;5982;37.494;-8.758;2023-06-14T12:49:09;25.90;99.90
11846;DHT22;5982;37.494;-8.758;2023-06-14T12:51:38;26.00;99.90
11846;DHT22;5982;37.494;-8.758;2023-06-14T12:54:07;26.00;99.90
11846;DHT22;5982;37.494;-8.758;2023-06-14T12:56:36;26.10;99.90
11846;DHT22;5982;37.494;-8.758;2023-06-14T12:59:07;26.10;99.90
11846;DHT22;5982;37.494;-8.758;2023-06-14T13:01:37;26.00;99.90
11846;DHT22;5982;37.494;-8.758;2023-06-14T13:04:06;26.10;99.90
11846;DHT22;5982;37.494;-8.758;2023-06-14T13:06:35;26.20;99.90
11846;DHT22;5982;37.494;-8.758;2023-06-14T13:09:04;26.30;99.90
11846;DHT22;5982;37.494;-8.758;2023-06-14T13:11:34;26.30;99.90
11846;DHT22;5982;37.494;-8.758;2023-06-14T13:14:04;26.20;99.90
11846;DHT22;5982;37.494;-8.758;2023-06-14T13:16:35;26.20;99.90
11846;DHT22;5982;37.494;-8.758;2023-06-14T13:19:04;26.30;99.90
11846;DHT22;5982;37.494;-8.758;2023-06-14T13:21:32;26.20;99.90
11846;DHT22;5982;37.494;-8.758;2023-06-14T13:24:01;26.30;99.90
11846;DHT22;5982;37.494;-8.758;2023-06-14T13:26:30;26.40;99.90
11846;DHT22;5982;37.494;-8.758;2023-06-14T13:28:59;26.50;99.90
11846;DHT22;5982;37.494;-8.758;2023-06-14T13:31:29;26.50;99.90
11846;DHT22;5982;37.494;-8.758;2023-06-14T13:33:58;26.40;99.90
11846;DHT22;5982;37.494;-8.758;2023-06-14T13:36:27;26.20;99.90
11846;DHT22;5982;37.494;-8.758;2023-06-14T13:38:55;26.10;99.90
11846;DHT22;5982;37.494;-8.758;2023-06-14T13:41:25;26.10;99.90
11846;DHT22;5982;37.494;-8.758;2023-06-14T13:43:58;26.10;99.90
11846;DHT22;5982;37.494;-8.758;2023-06-14T13:46:26;26.10;99.90
11846;DHT22;5982;37.494;-8.758;2023-06-14T13:48:56;26.20;99.90
11846;DHT22;5982;37.494;-8.758;2023-06-14T13:51:26;26.30;99.90
11846;DHT22;5982;37.494;-8.758;2023-06-14T13:53:55;26.40;99.90
11846;DHT22;5982;37.494;-8.758;2023-06-14T13:56:24;26.70;99.90
11846;DHT22;5982;37.494;-8.758;2023-06-14T13:58:52;26.80;99.90
11846;DHT22;5982;37.494;-8.758;2023-06-14T14:01:21;26.80;99.90
11846;DHT22;5982;37.494;-8.758;2023-06-14T14:03:52;26.80;99.90
11846;DHT22;5982;37.494;-8.758;2023-06-14T14:06:22;26.80;99.90
11846;DHT22;5982;37.494;-8.758;2023-06-14T14:08:50;26.70;99.90
11846;DHT22;5982;37.494;-8.758;2023-06-14T14:11:19;26.80;99.90
11846;DHT22;5982;37.494;-8.758;2023-06-14T14:13:48;26.80;99.90
11846;DHT22;5982;37.494;-8.758;2023-06-14T14:16:17;26.80;99.90
11846;DHT22;5982;37.494;-8.758;2023-06-14T14:18:46;26.80;99.90
11846;DHT22;5982;37.494;-8.758;2023-06-14T14:21:14;26.90;99.90
11846;DHT22;5982;37.494;-8.758;2023-06-14T14:23:45;26.90;99.90
11846;DHT22;5982;37.494;-8.758;2023-06-14T14:26:14;27.10;99.90
11846;DHT22;5982;37.494;-8.758;2023-06-14T14:28:42;27.20;99.90
11846;DHT22;5982;37.494;-8.758;2023-06-14T14:31:12;27.30;99.90
11846;DHT22;5982;37.494;-8.758;2023-06-14T14:33:40;27.20;99.90
11846;DHT22;5982;37.494;-8.758;2023-06-14T14:36:10;27.10;99.90
11846;DHT22;5982;37.494;-8.758;2023-06-14T14:38:40;26.90;99.90
11846;DHT22;5982;37.494;-8.758;2023-06-14T14:41:11;26.90;99.90
11846;DHT22;5982;37.494;-8.758;2023-06-14T14:43:40;27.00;99.90
11846;DHT22;5982;37.494;-8.758;2023-06-14T14:46:09;27.10;99.90
11846;DHT22;5982;37.494;-8.758;2023-06-14T14:48:37;27.00;99.90
11846;DHT22;5982;37.494;-8.758;2023-06-14T14:51:06;27.20;99.90
11846;DHT22;5982;37.494;-8.758;2023-06-14T14:53:35;27.30;99.90
11846;DHT22;5982;37.494;-8.758;2023-06-14T14:56:04;27.20;99.90
11846;DHT22;5982;37.494;-8.758;2023-06-14T14:58:35;27.00;99.90
11846;DHT22;5982;37.494;-8.758;2023-06-14T15:01:04;27.00;99.90
11846;DHT22;5982;37.494;-8.758;2023-06-14T15:03:33;27.00;99.90
11846;DHT22;5982;37.494;-8.758;2023-06-14T15:06:02;27.00;99.90
11846;DHT22;5982;37.494;-8.758;2023-06-14T15:08:31;27.00;99.90
11846;DHT22;5982;37.494;-8.758;2023-06-14T15:10:59;27.00;99.90
11846;DHT22;5982;37.494;-8.758;2023-06-14T15:13:29;27.20;99.90
11846;DHT22;5982;37.494;-8.758;2023-06-14T15:15:59;27.00;99.90
11846;DHT22;5982;37.494;-8.758;2023-06-14T15:18:28;26.90;99.90
11846;DHT22;5982;37.494;-8.758;2023-06-14T15:20:56;26.80;99.90
11846;DHT22;5982;37.494;-8.758;2023-06-14T15:23:25;26.80;99.90
11846;DHT22;5982;37.494;-8.758;2023-06-14T15:25:55;26.90;99.90
11846;DHT22;5982;37.494;-8.758;2023-06-14T15:28:25;26.90;99.90
11846;DHT22;5982;37.494;-8.758;2023-06-14T15:30:55;26.90;99.90
11846;DHT22;5982;37.494;-8.758;2023-06-14T15:33:26;26.80;99.90
11846;DHT22;5982;37.494;-8.758;2023-06-14T15:35:54;26.80;99.90
11846;DHT22;5982;37.494;-8.758;2023-06-14T15:38:24;26.90;99.90
11846;DHT22;5982;37.494;-8.758;2023-06-14T15:40:53;27.00;99.90
11846;DHT22;5982;37.494;-8.758;2023-06-14T15:43:21;26.90;99.90
11846;DHT22;5982;37.494;-8.758;2023-06-14T15:45:51;27.00;99.90
11846;DHT22;5982;37.494;-8.758;2023-06-14T15:48:19;27.00;99.90
11846;DHT22;5982;37.494;-8.758;2023-06-14T15:50:50;26.90;99.90
11846;DHT22;5982;37.494;-8.758;2023-06-14T15:53:19;26.90;99.90